Terminal Aerodrome Forecast
Issued by NWS

Home | Current Version | Previous Version | Text Only | Print | Product List | Glossary On
Versions: 1 2 3 4 5 6 7 8 9 10 11 12 13 14 15 16
616
FTUS43 KBIS 290120 AAB
TAFDIK
TAF AMD
KDIK 290120Z 2901/2924 15013KT P6SM VCTS BKN030CB
     FM290200 18009KT P6SM BKN050
     FM291600 22010KT P6SM SCT100=

USA.gov is the U.S. government's official web portal to all federal, state and local government web resources and services.